Time;durP1;ratioP1;P1;durP2;ratioP2;P2;SDS_P1;SDS_P2;PMS_P1;PMS_P2;Temp;Humidity;BMP_temperature;BMP_pressure;BME280_temperature;BME280_humidity;BME280_pressure;Samples;Min_cycle;Max_cycle;Signal;HPM_P1;HPM_P2
2022/09/17 00:02:21;;;;;;;0.00;0.00;;;;;;;;;;5015269;28;20053;-83
2022/09/17 00:04:48;;;;;;;0.00;0.00;;;;;;;;;;5015041;28;20114;-82
2022/09/17 00:07:14;;;;;;;0.00;0.00;;;;;;;;;;5014964;28;20054;-82
2022/09/17 00:09:40;;;;;;;0.00;0.00;;;;;;;;;;4998488;28;20041;-82
2022/09/17 00:12:06;;;;;;;0.00;0.00;;;;;;;;;;5014942;28;20395;-82
2022/09/17 00:14:32;;;;;;;0.00;0.00;;;;;;;;;;5014810;28;20048;-82
2022/09/17 00:16:58;;;;;;;0.00;0.00;;;;;;;;;;5015037;28;20038;-82
2022/09/17 00:19:24;;;;;;;0.00;0.00;;;;;;;;;;4998748;28;20045;-82
2022/09/17 00:21:51;;;;;;;0.00;0.00;;;;;;;;;;5014888;28;20432;-83
2022/09/17 00:24:18;;;;;;;0.00;0.00;;;;;;;;;;5014601;28;20103;-82
2022/09/17 00:26:44;;;;;;;0.00;0.00;;;;;;;;;;5032740;28;20037;-82
2022/09/17 00:29:10;;;;;;;0.00;0.00;;;;;;;;;;5014720;28;20392;-82
2022/09/17 00:31:36;;;;;;;0.00;0.00;;;;;;;;;;4998594;28;20034;-82
2022/09/17 00:34:03;;;;;;;0.00;0.00;;;;;;;;;;5014785;28;20083;-82
2022/09/17 00:36:29;;;;;;;0.00;0.00;;;;;;;;;;5015094;28;20045;-82
2022/09/17 00:38:57;;;;;;;0.00;0.00;;;;;;;;;;5014737;28;20090;-82
2022/09/17 00:41:25;;;;;;;0.00;0.00;;;;;;;;;;5014853;28;20045;-82
2022/09/17 00:43:53;;;;;;;0.00;0.00;;;;;;;;;;5014531;28;20052;-81
2022/09/17 00:46:22;;;;;;;0.00;0.00;;;;;;;;;;5014806;28;20052;-81
2022/09/17 00:48:48;;;;;;;0.00;0.00;;;;;;;;;;5014619;28;20048;-81
2022/09/17 00:51:17;;;;;;;0.00;0.00;;;;;;;;;;4998513;28;20041;-81
2022/09/17 00:53:43;;;;;;;0.00;0.00;;;;;;;;;;5014523;28;20042;-81
2022/09/17 00:56:14;;;;;;;0.00;0.00;;;;;;;;;;5014891;28;20512;-81
2022/09/17 00:58:40;;;;;;;0.00;0.00;;;;;;;;;;5014754;28;20129;-81
2022/09/17 01:01:06;;;;;;;0.00;0.00;;;;;;;;;;4998413;28;20101;-81
2022/09/17 01:03:32;;;;;;;0.00;0.00;;;;;;;;;;5014426;28;20053;-81
2022/09/17 01:06:10;;;;;;;0.00;0.00;;;;;;;;;;5014549;28;20050;-81
2022/09/17 01:08:49;;;;;;;0.38;0.00;;;;;;;;;;5014519;28;20045;-81
2022/09/17 01:11:18;;;;;;;0.00;0.00;;;;;;;;;;5014918;28;20038;-81
2022/09/17 01:13:55;;;;;;;0.00;0.00;;;;;;;;;;5014395;28;20080;-81
2022/09/17 01:16:29;;;;;;;0.00;0.00;;;;;;;;;;5014535;28;20041;-81
2022/09/17 01:19:03;;;;;;;0.00;0.00;;;;;;;;;;4997989;28;20050;-81
2022/09/17 01:21:33;;;;;;;0.00;0.00;;;;;;;;;;5014435;28;20052;-82
2022/09/17 01:24:05;;;;;;;0.00;0.00;;;;;;;;;;5016926;28;20370;-81
2022/09/17 01:27:00;;;;;;;0.00;0.00;;;;;;;;;;5001541;28;20045;-81
2022/09/17 01:29:38;;;;;;;0.00;0.00;;;;;;;;;;5017763;28;20041;-82
2022/09/17 01:32:11;;;;;;;0.00;0.00;;;;;;;;;;5017944;28;20045;-82
2022/09/17 01:34:44;;;;;;;0.00;0.00;;;;;;;;;;5001319;28;20045;-82
2022/09/17 01:37:13;;;;;;;0.00;0.00;;;;;;;;;;5018089;28;20053;-82
2022/09/17 01:39:56;;;;;;;0.00;0.00;;;;;;;;;;5017596;28;20091;-82
2022/09/17 01:42:35;;;;;;;0.00;0.00;;;;;;;;;;5018036;28;20405;-82
2022/09/17 01:45:04;;;;;;;0.00;0.00;;;;;;;;;;5017456;28;20044;-82
2022/09/17 01:47:35;;;;;;;0.00;0.00;;;;;;;;;;5017528;28;20099;-81
2022/09/17 01:50:08;;;;;;;0.00;0.00;;;;;;;;;;5017329;28;20392;-82
2022/09/17 01:52:35;;;;;;;0.00;0.00;;;;;;;;;;5017404;28;20056;-82
2022/09/17 01:55:03;;;;;;;0.00;0.00;;;;;;;;;;5017172;28;20095;-81
2022/09/17 01:57:32;;;;;;;0.00;0.00;;;;;;;;;;5017342;28;20041;-82
2022/09/17 02:00:01;;;;;;;0.00;0.00;;;;;;;;;;5017103;28;20052;-82
2022/09/17 02:02:37;;;;;;;0.00;0.00;;;;;;;;;;5017266;28;20057;-81
2022/09/17 02:05:03;;;;;;;;;;;;;;;;;;5017401;28;20042;-81
2022/09/17 02:07:30;;;;;;;0.00;0.00;;;;;;;;;;5017044;28;19921;-82
2022/09/17 02:10:17;;;;;;;0.00;0.00;;;;;;;;;;5016976;28;20041;-82
2022/09/17 02:12:50;;;;;;;0.00;0.00;;;;;;;;;;4998070;28;20420;-82
2022/09/17 02:15:22;;;;;;;0.00;0.00;;;;;;;;;;5017097;28;20045;-82
2022/09/17 02:17:49;;;;;;;0.00;0.00;;;;;;;;;;5001028;28;20120;-83
2022/09/17 02:20:16;;;;;;;0.00;0.00;;;;;;;;;;5016768;28;20072;-82
2022/09/17 02:22:44;;;;;;;0.00;0.00;;;;;;;;;;5017063;28;20052;-82
2022/09/17 02:25:15;;;;;;;0.00;0.00;;;;;;;;;;5000583;28;20046;-82
2022/09/17 02:27:48;;;;;;;0.00;0.00;;;;;;;;;;5016962;28;20033;-82
2022/09/17 02:30:14;;;;;;;0.00;0.00;;;;;;;;;;5016576;28;20091;-81
2022/09/17 02:32:41;;;;;;;0.00;0.00;;;;;;;;;;5016782;28;20119;-82
2022/09/17 02:35:07;;;;;;;0.00;0.00;;;;;;;;;;5000015;28;20395;-82
2022/09/17 02:37:33;;;;;;;0.00;0.00;;;;;;;;;;5000454;28;20038;-80
2022/09/17 02:39:59;;;;;;;0.00;0.00;;;;;;;;;;5016462;28;20120;-79
2022/09/17 02:42:48;;;;;;;0.00;0.00;;;;;;;;;;5016637;28;20392;-82
2022/09/17 02:45:23;;;;;;;0.00;0.00;;;;;;;;;;5016136;28;20041;-82
2022/09/17 02:47:58;;;;;;;0.00;0.00;;;;;;;;;;5016725;28;20428;-83
2022/09/17 02:50:43;;;;;;;0.00;0.00;;;;;;;;;;5000134;28;20095;-81
2022/09/17 02:53:09;;;;;;;0.00;0.00;;;;;;;;;;5016476;28;20045;-82
2022/09/17 02:55:45;;;;;;;0.00;0.00;;;;;;;;;;5016123;28;20037;-82
2022/09/17 02:58:18;;;;;;;0.00;0.00;;;;;;;;;;5016405;28;20041;-82
2022/09/17 03:00:45;;;;;;;0.00;0.00;;;;;;;;;;5016167;28;20515;-82
2022/09/17 03:03:20;;;;;;;0.00;0.00;;;;;;;;;;5016093;28;20052;-82
2022/09/17 03:05:46;;;;;;;0.00;0.00;;;;;;;;;;5015838;28;20061;-82
2022/09/17 03:08:13;;;;;;;0.00;0.00;;;;;;;;;;5016130;28;20057;-82
2022/09/17 03:10:40;;;;;;;0.00;0.00;;;;;;;;;;5015799;28;20037;-81
2022/09/17 03:13:06;;;;;;;0.00;0.00;;;;;;;;;;5015966;28;20081;-82
2022/09/17 03:15:32;;;;;;;0.00;0.00;;;;;;;;;;5033355;28;20436;-82
2022/09/17 03:17:58;;;;;;;0.00;0.00;;;;;;;;;;4999595;28;20041;-81
2022/09/17 03:20:24;;;;;;;0.00;0.00;;;;;;;;;;5015697;28;20041;-82
2022/09/17 03:22:51;;;;;;;0.00;0.00;;;;;;;;;;5015804;28;20416;-82
2022/09/17 03:25:17;;;;;;;0.00;0.00;;;;;;;;;;5015507;28;20042;-81
2022/09/17 03:27:43;;;;;;;0.00;0.00;;;;;;;;;;5015806;28;20120;-81
2022/09/17 03:30:09;;;;;;;0.00;0.00;;;;;;;;;;5015542;28;20037;-81
2022/09/17 03:32:35;;;;;;;0.00;0.00;;;;;;;;;;5015980;28;20087;-81
2022/09/17 03:35:01;;;;;;;0.00;0.00;;;;;;;;;;5015426;28;20496;-82
2022/09/17 03:37:27;;;;;;;0.00;0.00;;;;;;;;;;4999137;28;20041;-82
2022/09/17 03:39:53;;;;;;;0.00;0.00;;;;;;;;;;5015335;28;20098;-82
2022/09/17 03:42:19;;;;;;;0.00;0.00;;;;;;;;;;5015451;28;20045;-81
2022/09/17 03:44:45;;;;;;;0.00;0.00;;;;;;;;;;5015280;28;20374;-82
2022/09/17 03:47:11;;;;;;;0.00;0.00;;;;;;;;;;5015100;28;20047;-82
2022/09/17 03:49:37;;;;;;;0.00;0.00;;;;;;;;;;4999017;28;20045;-82
2022/09/17 03:52:03;;;;;;;0.00;0.00;;;;;;;;;;5015202;28;20075;-82
2022/09/17 03:54:29;;;;;;;0.00;0.00;;;;;;;;;;5015392;28;20045;-82
2022/09/17 03:56:55;;;;;;;0.00;0.00;;;;;;;;;;5015135;28;20033;-81
2022/09/17 03:59:22;;;;;;;0.00;0.00;;;;;;;;;;5015305;28;20128;-81
2022/09/17 04:01:48;;;;;;;0.00;0.00;;;;;;;;;;5015144;28;20053;-81
2022/09/17 04:04:14;;;;;;;0.00;0.00;;;;;;;;;;5015062;28;20046;-82
2022/09/17 04:06:39;;;;;;;0.00;0.00;;;;;;;;;;5014961;28;20057;-82
2022/09/17 04:09:05;;;;;;;0.00;0.00;;;;;;;;;;4998742;28;20041;-81
2022/09/17 04:11:32;;;;;;;0.00;0.00;;;;;;;;;;5014945;28;20045;-82
2022/09/17 04:13:57;;;;;;;0.00;0.00;;;;;;;;;;5015372;28;20049;-81
2022/09/17 04:16:23;;;;;;;0.00;0.00;;;;;;;;;;5014974;28;20485;-81
2022/09/17 04:18:49;;;;;;;0.00;0.00;;;;;;;;;;4998684;28;20115;-82
2022/09/17 04:21:15;;;;;;;0.00;0.00;;;;;;;;;;5015072;28;20048;-82
2022/09/17 04:23:41;;;;;;;0.00;0.00;;;;;;;;;;4998499;28;20063;-81
2022/09/17 04:26:07;;;;;;;0.00;0.00;;;;;;;;;;5014907;28;20037;-82
2022/09/17 04:28:33;;;;;;;0.00;0.00;;;;;;;;;;5014990;28;20068;-81
2022/09/17 04:30:59;;;;;;;0.00;0.00;;;;;;;;;;5015079;28;20476;-81
2022/09/17 04:33:25;;;;;;;0.00;0.00;;;;;;;;;;5014839;28;20042;-82
2022/09/17 04:35:52;;;;;;;0.00;0.00;;;;;;;;;;5014840;28;20044;-81
2022/09/17 04:38:19;;;;;;;0.00;0.00;;;;;;;;;;5032666;28;20110;-81
2022/09/17 04:40:45;;;;;;;0.00;0.00;;;;;;;;;;4998398;28;20041;-81
2022/09/17 04:43:11;;;;;;;0.00;0.00;;;;;;;;;;5014670;28;20046;-81
2022/09/17 04:45:37;;;;;;;0.00;0.00;;;;;;;;;;5014545;28;20103;-82
2022/09/17 04:48:04;;;;;;;0.00;0.00;;;;;;;;;;5015160;28;20038;-81
2022/09/17 04:50:30;;;;;;;0.00;0.00;;;;;;;;;;5014608;28;20047;-81
2022/09/17 04:52:56;;;;;;;0.00;0.00;;;;;;;;;;5014689;28;20437;-82
2022/09/17 04:55:22;;;;;;;0.00;0.00;;;;;;;;;;5014624;28;20041;-81
2022/09/17 04:57:49;;;;;;;0.00;0.00;;;;;;;;;;5015559;28;20220;-81
2022/09/17 05:00:16;;;;;;;0.00;0.00;;;;;;;;;;5018425;28;20501;-81
2022/09/17 05:02:44;;;;;;;0.00;0.00;;;;;;;;;;5018187;28;20511;-81
2022/09/17 05:05:10;;;;;;;0.00;0.00;;;;;;;;;;5002108;28;20033;-81
2022/09/17 05:07:38;;;;;;;0.00;0.00;;;;;;;;;;5017935;28;20509;-81
2022/09/17 05:10:04;;;;;;;0.00;0.00;;;;;;;;;;5018175;28;20042;-81
2022/09/17 05:12:30;;;;;;;0.00;0.00;;;;;;;;;;5018250;28;20034;-81
2022/09/17 05:14:56;;;;;;;0.00;0.00;;;;;;;;;;5001902;28;20542;-81
2022/09/17 05:17:22;;;;;;;0.00;0.00;;;;;;;;;;5017960;28;20045;-81
2022/09/17 05:19:48;;;;;;;0.00;0.00;;;;;;;;;;5018222;28;20050;-81
2022/09/17 05:22:14;;;;;;;0.00;0.00;;;;;;;;;;5017954;28;20397;-81
2022/09/17 05:24:40;;;;;;;0.00;0.00;;;;;;;;;;5017933;28;20037;-81
2022/09/17 05:27:06;;;;;;;0.00;0.00;;;;;;;;;;5035855;28;20193;-82
2022/09/17 05:29:32;;;;;;;0.00;0.00;;;;;;;;;;5001433;28;20041;-81
2022/09/17 05:31:58;;;;;;;0.00;0.00;;;;;;;;;;5017690;28;20083;-81
2022/09/17 05:34:24;;;;;;;0.00;0.00;;;;;;;;;;5017795;28;20105;-81
2022/09/17 05:36:51;;;;;;;0.00;0.00;;;;;;;;;;5001197;28;20045;-81
2022/09/17 05:39:16;;;;;;;0.00;0.00;;;;;;;;;;5017923;28;20041;-81
2022/09/17 05:41:42;;;;;;;0.00;0.00;;;;;;;;;;5017697;28;20037;-81
2022/09/17 05:44:09;;;;;;;0.00;0.00;;;;;;;;;;5001249;28;20041;-81
2022/09/17 05:46:35;;;;;;;0.00;0.00;;;;;;;;;;5001307;28;20038;-80
2022/09/17 05:49:01;;;;;;;0.00;0.00;;;;;;;;;;5017698;28;20044;-81
2022/09/17 05:51:27;;;;;;;0.00;0.00;;;;;;;;;;5017206;28;20065;-81
2022/09/17 05:53:54;;;;;;;0.00;0.00;;;;;;;;;;5017381;28;20127;-82
2022/09/17 05:56:20;;;;;;;0.00;0.00;;;;;;;;;;5017640;28;20045;-81
2022/09/17 05:58:47;;;;;;;0.00;0.00;;;;;;;;;;5035119;28;20041;-81
2022/09/17 06:01:15;;;;;;;0.00;0.00;;;;;;;;;;5017287;28;20467;-81
2022/09/17 06:03:41;;;;;;;0.00;0.00;;;;;;;;;;5017273;28;20049;-81
2022/09/17 06:06:07;;;;;;;0.00;0.00;;;;;;;;;;5016983;28;20054;-81
2022/09/17 06:08:35;;;;;;;0.00;0.00;;;;;;;;;;5016759;28;20037;-81
2022/09/17 06:11:08;;;;;;;0.00;0.00;;;;;;;;;;5017232;28;20056;-81
2022/09/17 06:13:34;;;;;;;0.00;0.00;;;;;;;;;;5000605;28;20049;-81
2022/09/17 06:16:01;;;;;;;0.00;0.00;;;;;;;;;;5034833;28;20076;-81
2022/09/17 06:18:28;;;;;;;0.00;0.00;;;;;;;;;;5000388;28;20049;-81
2022/09/17 06:20:58;;;;;;;0.00;0.00;;;;;;;;;;5016918;28;20042;-81
2022/09/17 06:23:24;;;;;;;0.00;0.00;;;;;;;;;;5016636;28;20103;-82
2022/09/17 06:26:01;;;;;;;0.00;0.00;;;;;;;;;;5017012;28;20037;-83
2022/09/17 06:28:27;;;;;;;0.00;0.00;;;;;;;;;;5016522;28;20392;-83
2022/09/17 06:30:55;;;;;;;0.00;0.00;;;;;;;;;;5017046;28;20045;-84
2022/09/17 06:33:22;;;;;;;0.00;0.00;;;;;;;;;;4999994;28;20465;-84
2022/09/17 06:35:48;;;;;;;0.00;0.00;;;;;;;;;;5016726;28;20045;-85
2022/09/17 06:38:14;;;;;;;0.00;0.00;;;;;;;;;;5016559;28;20044;-88
2022/09/17 06:40:40;;;;;;;0.00;0.00;;;;;;;;;;5017085;28;20508;-85
2022/09/17 06:43:06;;;;;;;0.00;0.00;;;;;;;;;;5016781;28;20041;-84
2022/09/17 06:45:32;;;;;;;0.00;0.00;;;;;;;;;;5016534;28;20038;-87
2022/09/17 06:48:02;;;;;;;0.00;0.00;;;;;;;;;;5003557;28;20095;-84
2022/09/17 06:50:30;;;;;;;0.00;0.00;;;;;;;;;;5001440;28;20045;-94
2022/09/17 06:52:56;;;;;;;0.00;0.00;;;;;;;;;;4999498;28;20080;-82
2022/09/17 06:55:22;;;;;;;0.00;0.00;;;;;;;;;;5016298;28;20107;-82
2022/09/17 06:57:48;;;;;;;0.00;0.00;;;;;;;;;;4999682;28;20056;-82
2022/09/17 07:00:14;;;;;;;0.00;0.00;;;;;;;;;;5016233;28;20041;-82
2022/09/17 07:02:40;;;;;;;0.00;0.00;;;;;;;;;;5015972;28;20041;-82
2022/09/17 07:05:06;;;;;;;0.00;0.00;;;;;;;;;;5016152;28;20049;-83
2022/09/17 07:07:34;;;;;;;0.00;0.00;;;;;;;;;;5024151;28;20054;-89
2022/09/17 07:10:00;;;;;;;0.00;0.00;;;;;;;;;;5019431;28;20068;-84
2022/09/17 07:12:26;;;;;;;0.00;0.00;;;;;;;;;;5016073;28;20083;-82
2022/09/17 07:14:52;;;;;;;0.00;0.00;;;;;;;;;;5016641;28;20396;-85
2022/09/17 07:17:19;;;;;;;0.00;0.00;;;;;;;;;;5016259;28;20103;-87
2022/09/17 07:19:46;;;;;;;0.00;0.00;;;;;;;;;;5016200;28;20044;-88
2022/09/17 07:22:13;;;;;;;0.00;0.00;;;;;;;;;;5000257;28;20041;-85
2022/09/17 07:24:39;;;;;;;0.00;0.00;;;;;;;;;;5016225;28;20045;-81
2022/09/17 07:27:05;;;;;;;0.00;0.00;;;;;;;;;;5016349;28;20041;-89
2022/09/17 07:29:31;;;;;;;0.00;0.00;;;;;;;;;;5016821;28;20440;-81
2022/09/17 07:31:58;;;;;;;0.00;0.00;;;;;;;;;;4999725;28;20125;-87
2022/09/17 07:34:26;;;;;;;0.00;0.00;;;;;;;;;;5015412;28;20049;-85
2022/09/17 07:36:52;;;;;;;0.00;0.00;;;;;;;;;;5015849;28;20172;-84
2022/09/17 07:39:18;;;;;;;0.00;0.00;;;;;;;;;;5015390;28;20520;-84
2022/09/17 07:41:44;;;;;;;0.00;0.00;;;;;;;;;;5015893;28;20041;-86
2022/09/17 07:44:10;;;;;;;0.00;0.00;;;;;;;;;;4998916;28;20046;-85
2022/09/17 07:46:36;;;;;;;0.00;0.00;;;;;;;;;;5015502;28;20038;-85
2022/09/17 07:49:02;;;;;;;0.00;0.00;;;;;;;;;;5015289;28;20033;-85
2022/09/17 07:51:28;;;;;;;0.00;0.00;;;;;;;;;;5015373;28;20064;-84
2022/09/17 07:53:56;;;;;;;0.00;0.00;;;;;;;;;;5015384;28;20131;-84
2022/09/17 07:56:22;;;;;;;0.00;0.00;;;;;;;;;;5015636;28;20056;-84
2022/09/17 07:58:48;;;;;;;0.00;0.00;;;;;;;;;;5015165;28;20189;-84
2022/09/17 08:01:15;;;;;;;0.00;0.00;;;;;;;;;;4999091;28;20486;-84
2022/09/17 08:03:42;;;;;;;0.00;0.00;;;;;;;;;;4998708;28;20373;-84
2022/09/17 08:06:13;;;;;;;0.00;0.00;;;;;;;;;;5015019;28;20057;-84
2022/09/17 08:08:39;;;;;;;0.00;0.00;;;;;;;;;;5015010;28;20128;-86
2022/09/17 08:11:05;;;;;;;0.00;0.00;;;;;;;;;;5015234;28;20435;-84
2022/09/17 08:13:31;;;;;;;0.00;0.00;;;;;;;;;;5015703;28;20053;-85
2022/09/17 08:15:58;;;;;;;0.00;0.00;;;;;;;;;;4998831;28;20037;-83
2022/09/17 08:18:24;;;;;;;0.00;0.00;;;;;;;;;;4998528;28;20128;-84
2022/09/17 08:20:50;;;;;;;0.00;0.00;;;;;;;;;;4998862;28;20076;-84
2022/09/17 08:23:16;;;;;;;0.00;0.00;;;;;;;;;;5014620;28;20076;-84
2022/09/17 08:25:42;;;;;;;0.00;0.00;;;;;;;;;;5015028;28;20117;-84
2022/09/17 08:28:08;;;;;;;0.00;0.00;;;;;;;;;;4998554;28;20087;-84
2022/09/17 08:30:34;;;;;;;0.00;0.00;;;;;;;;;;4998512;28;20433;-84
2022/09/17 08:33:00;;;;;;;0.00;0.00;;;;;;;;;;5017902;28;20048;-85
2022/09/17 08:35:26;;;;;;;0.00;0.00;;;;;;;;;;5019218;28;20080;-84
2022/09/17 08:37:54;;;;;;;0.00;0.00;;;;;;;;;;5002482;28;20088;-84
2022/09/17 08:40:22;;;;;;;0.00;0.00;;;;;;;;;;5018910;28;20042;-84
2022/09/17 08:42:56;;;;;;;0.00;0.00;;;;;;;;;;5018879;28;20099;-83
2022/09/17 08:45:22;;;;;;;0.00;0.00;;;;;;;;;;5018808;28;20052;-84
2022/09/17 08:47:49;;;;;;;0.00;0.00;;;;;;;;;;5002255;28;20049;-83
2022/09/17 08:50:18;;;;;;;0.00;0.00;;;;;;;;;;5002291;28;20076;-84
2022/09/17 08:53:03;;;;;;;0.00;0.00;;;;;;;;;;5019172;28;20085;-86
2022/09/17 08:55:47;;;;;;;0.00;0.00;;;;;;;;;;5002557;28;20051;-84
2022/09/17 08:58:16;;;;;;;0.00;0.00;;;;;;;;;;5002414;28;20449;-84
2022/09/17 09:00:51;;;;;;;0.00;0.00;;;;;;;;;;5018503;28;20045;-85
2022/09/17 09:03:20;;;;;;;0.00;0.00;;;;;;;;;;5018153;28;20049;-85
2022/09/17 09:05:55;;;;;;;0.22;0.10;;;;;;;;;;5001978;28;20054;-85
2022/09/17 09:08:34;;;;;;;0.00;0.00;;;;;;;;;;5001900;28;20041;-85
2022/09/17 09:11:02;;;;;;;0.00;0.00;;;;;;;;;;5001861;28;20037;-84
2022/09/17 09:13:31;;;;;;;0.00;0.00;;;;;;;;;;5001961;28;20461;-85
2022/09/17 09:16:05;;;;;;;0.00;0.00;;;;;;;;;;5018248;28;20205;-85
2022/09/17 09:18:35;;;;;;;0.00;0.00;;;;;;;;;;5001836;28;20190;-85
2022/09/17 09:21:19;;;;;;;0.00;0.00;;;;;;;;;;5018632;28;20038;-85
2022/09/17 09:23:55;;;;;;;0.00;0.00;;;;;;;;;;5001423;28;20049;-86
2022/09/17 09:26:37;;;;;;;0.00;0.00;;;;;;;;;;5017958;28;20519;-84
2022/09/17 09:29:15;;;;;;;0.00;0.00;;;;;;;;;;5017522;28;20416;-84
2022/09/17 09:31:41;;;;;;;0.00;0.00;;;;;;;;;;5017995;28;20041;-84
2022/09/17 09:34:08;;;;;;;0.00;0.00;;;;;;;;;;5017860;28;20042;-90
2022/09/17 09:36:37;;;;;;;0.00;0.00;;;;;;;;;;5017882;28;20508;-85
2022/09/17 09:39:03;;;;;;;0.00;0.00;;;;;;;;;;5001440;28;20064;-86
2022/09/17 09:41:29;;;;;;;0.00;0.00;;;;;;;;;;5017787;28;20492;-85
2022/09/17 09:44:02;;;;;;;0.00;0.00;;;;;;;;;;5016484;28;20396;-85
2022/09/17 09:46:34;;;;;;;0.00;0.00;;;;;;;;;;5017647;28;20049;-85
2022/09/17 09:49:12;;;;;;;0.00;0.00;;;;;;;;;;5000983;28;20037;-86
2022/09/17 09:51:56;;;;;;;0.00;0.00;;;;;;;;;;5017673;28;20041;-85
2022/09/17 09:54:32;;;;;;;0.00;0.00;;;;;;;;;;5017581;28;20037;-85
2022/09/17 09:57:02;;;;;;;0.00;0.00;;;;;;;;;;5018090;28;20147;-86
2022/09/17 09:59:29;;;;;;;0.00;0.00;;;;;;;;;;5017306;28;20096;-85
2022/09/17 10:01:55;;;;;;;0.00;0.00;;;;;;;;;;5017466;28;20083;-84
2022/09/17 10:04:22;;;;;;;0.00;0.00;;;;;;;;;;5017077;28;20045;-84
2022/09/17 10:06:52;;;;;;;0.00;0.00;;;;;;;;;;5001185;28;20424;-85
2022/09/17 10:09:21;;;;;;;0.00;0.00;;;;;;;;;;5017069;28;20103;-84
2022/09/17 10:12:02;;;;;;;0.00;0.00;;;;;;;;;;5000999;28;20041;-86
2022/09/17 10:14:29;;;;;;;0.00;0.00;;;;;;;;;;5016900;28;20168;-85
2022/09/17 10:17:13;;;;;;;0.00;0.00;;;;;;;;;;5017316;28;20051;-85
2022/09/17 10:19:40;;;;;;;0.00;0.00;;;;;;;;;;5017233;28;20037;-86
2022/09/17 10:22:18;;;;;;;0.00;0.00;;;;;;;;;;5017600;28;20480;-86
2022/09/17 10:24:44;;;;;;;0.00;0.00;;;;;;;;;;5018384;28;20040;-86
2022/09/17 10:27:13;;;;;;;0.00;0.00;;;;;;;;;;5017988;28;20042;-91
2022/09/17 10:29:44;;;;;;;0.00;0.00;;;;;;;;;;5001585;28;20037;-89
2022/09/17 10:32:21;;;;;;;0.00;0.00;;;;;;;;;;5001260;28;20144;-87
2022/09/17 10:34:58;;;;;;;0.00;0.00;;;;;;;;;;5016645;28;20042;-85
2022/09/17 10:37:33;;;;;;;0.00;0.00;;;;;;;;;;5017266;28;20044;-87
2022/09/17 10:39:59;;;;;;;0.00;0.00;;;;;;;;;;5017317;28;20038;-86
2022/09/17 10:42:25;;;;;;;0.00;0.00;;;;;;;;;;5017656;28;20052;-85
2022/09/17 10:44:52;;;;;;;0.00;0.00;;;;;;;;;;5000485;28;20124;-85
2022/09/17 10:47:23;;;;;;;0.00;0.00;;;;;;;;;;5017257;28;20049;-87
2022/09/17 10:49:55;;;;;;;0.00;0.00;;;;;;;;;;5016507;28;20033;-86
2022/09/17 10:52:31;;;;;;;0.00;0.00;;;;;;;;;;5017164;28;20094;-87
2022/09/17 10:55:18;;;;;;;0.00;0.00;;;;;;;;;;5015597;28;20408;-86
2022/09/17 10:57:57;;;;;;;0.00;0.00;;;;;;;;;;5016930;28;20060;-85
2022/09/17 11:00:23;;;;;;;0.00;0.00;;;;;;;;;;5000160;28;20132;-87
2022/09/17 11:03:08;;;;;;;0.00;0.00;;;;;;;;;;5016361;28;20087;-86
2022/09/17 11:05:53;;;;;;;0.00;0.00;;;;;;;;;;5015801;28;20061;-85
2022/09/17 11:08:23;;;;;;;0.00;0.00;;;;;;;;;;5016271;28;20045;-83
2022/09/17 11:10:55;;;;;;;0.00;0.00;;;;;;;;;;5016260;28;20037;-83
2022/09/17 11:13:33;;;;;;;0.00;0.00;;;;;;;;;;5016319;28;20052;-84
2022/09/17 11:16:02;;;;;;;0.00;0.00;;;;;;;;;;5015831;28;20063;-83
2022/09/17 11:18:36;;;;;;;0.00;0.00;;;;;;;;;;5016354;28;20110;-85
2022/09/17 11:21:17;;;;;;;0.00;0.00;;;;;;;;;;5015873;28;20060;-87
2022/09/17 11:23:46;;;;;;;0.00;0.00;;;;;;;;;;4999507;28;20047;-85
2022/09/17 11:26:23;;;;;;;0.00;0.00;;;;;;;;;;4999632;28;20129;-84
2022/09/17 11:29:07;;;;;;;0.00;0.00;;;;;;;;;;5015995;28;20079;-85
2022/09/17 11:31:37;;;;;;;0.00;0.00;;;;;;;;;;4999294;28;20072;-85
2022/09/17 11:34:22;;;;;;;0.00;0.00;;;;;;;;;;5015846;28;20033;-85
2022/09/17 11:37:00;;;;;;;0.00;0.00;;;;;;;;;;5015442;28;20053;-84
2022/09/17 11:39:46;;;;;;;0.00;0.00;;;;;;;;;;5015650;28;20045;-84
2022/09/17 11:42:16;;;;;;;0.00;0.00;;;;;;;;;;5015892;28;20473;-85
2022/09/17 11:44:54;;;;;;;0.00;0.00;;;;;;;;;;5015441;28;20053;-86
2022/09/17 11:47:20;;;;;;;0.00;0.00;;;;;;;;;;5017830;28;20037;-84
2022/09/17 11:49:45;;;;;;;0.00;0.00;;;;;;;;;;5015531;28;20377;-85
2022/09/17 11:52:20;;;;;;;0.00;0.00;;;;;;;;;;5015472;28;20041;-86
2022/09/17 11:54:46;;;;;;;0.00;0.00;;;;;;;;;;4999336;28;20038;-86
2022/09/17 11:57:25;;;;;;;0.00;0.00;;;;;;;;;;5015805;28;20099;-85
2022/09/17 12:00:00;;;;;;;0.00;0.00;;;;;;;;;;5015213;28;20041;-86
2022/09/17 12:02:33;;;;;;;0.00;0.00;;;;;;;;;;5015453;28;20041;-85
2022/09/17 12:05:08;;;;;;;0.00;0.00;;;;;;;;;;5015314;28;20054;-85
2022/09/17 12:07:47;;;;;;;0.00;0.00;;;;;;;;;;5013779;28;20081;-85
2022/09/17 12:10:19;;;;;;;0.00;0.00;;;;;;;;;;5015162;28;20144;-86
2022/09/17 12:12:57;;;;;;;0.00;0.00;;;;;;;;;;4998811;28;20037;-86
2022/09/17 12:15:26;;;;;;;0.00;0.00;;;;;;;;;;5014938;28;20400;-85
2022/09/17 12:18:15;;;;;;;0.00;0.00;;;;;;;;;;5015055;28;20080;-84
2022/09/17 12:20:43;;;;;;;0.00;0.00;;;;;;;;;;4996876;28;20473;-84
2022/09/17 12:23:11;;;;;;;0.00;0.00;;;;;;;;;;4998600;28;20045;-84
2022/09/17 12:25:43;;;;;;;0.00;0.00;;;;;;;;;;5014794;28;20048;-85
2022/09/17 12:28:15;;;;;;;0.00;0.00;;;;;;;;;;4998749;28;20037;-86
2022/09/17 12:30:44;;;;;;;0.00;0.00;;;;;;;;;;5014974;28;20086;-84
2022/09/17 12:33:25;;;;;;;0.00;0.00;;;;;;;;;;4998710;28;20397;-84
2022/09/17 12:36:09;;;;;;;0.00;0.00;;;;;;;;;;5014646;28;20048;-85
2022/09/17 12:38:36;;;;;;;0.00;0.00;;;;;;;;;;5014687;28;20041;-85
2022/09/17 12:41:02;;;;;;;0.00;0.00;;;;;;;;;;5014679;28;20165;-83
2022/09/17 12:43:43;;;;;;;0.00;0.00;;;;;;;;;;4998670;28;20087;-85
2022/09/17 12:46:12;;;;;;;0.00;0.00;;;;;;;;;;5014587;28;20044;-85
2022/09/17 12:49:03;;;;;;;0.00;0.00;;;;;;;;;;5032770;28;20048;-85
2022/09/17 12:51:38;;;;;;;0.00;0.00;;;;;;;;;;4998751;28;20072;-88
2022/09/17 12:54:20;;;;;;;0.00;0.00;;;;;;;;;;5018915;28;20128;-85
2022/09/17 12:57:03;;;;;;;0.00;0.00;;;;;;;;;;5014883;28;20049;-85
2022/09/17 12:59:30;;;;;;;0.00;0.00;;;;;;;;;;5031504;28;20049;-84
2022/09/17 13:02:17;;;;;;;0.00;0.00;;;;;;;;;;5014650;28;20539;-86
2022/09/17 13:04:46;;;;;;;0.00;0.00;;;;;;;;;;5031665;28;20481;-85
2022/09/17 13:07:29;;;;;;;0.00;0.00;;;;;;;;;;5030957;28;20050;-86
2022/09/17 13:09:55;;;;;;;0.00;0.00;;;;;;;;;;5014815;28;20049;-85
2022/09/17 13:12:21;;;;;;;0.00;0.00;;;;;;;;;;5014652;28;20076;-85
2022/09/17 13:14:55;;;;;;;0.00;0.00;;;;;;;;;;5030965;28;20391;-85
2022/09/17 13:17:31;;;;;;;0.00;0.00;;;;;;;;;;5030898;28;20045;-87
2022/09/17 13:20:03;;;;;;;0.00;0.00;;;;;;;;;;5034012;28;20037;-87
2022/09/17 13:22:32;;;;;;;0.00;0.00;;;;;;;;;;5033724;28;20046;-87
2022/09/17 13:25:08;;;;;;;0.00;0.00;;;;;;;;;;5034511;28;20053;-87
2022/09/17 13:27:36;;;;;;;0.00;0.00;;;;;;;;;;5035574;28;20037;-86
2022/09/17 13:30:03;;;;;;;0.00;0.00;;;;;;;;;;5019997;28;20045;-92
2022/09/17 13:32:32;;;;;;;4.18;0.85;;;;;;;;;;5035939;28;20122;-85
2022/09/17 13:35:08;;;;;;;0.00;0.00;;;;;;;;;;5034346;28;20063;-87
2022/09/17 13:37:35;;;;;;;0.00;0.00;;;;;;;;;;5018034;28;20068;-86
2022/09/17 13:40:02;;;;;;;0.00;0.00;;;;;;;;;;5017785;28;20037;-83
2022/09/17 13:42:29;;;;;;;0.00;0.00;;;;;;;;;;5034111;28;20049;-85
2022/09/17 13:45:04;;;;;;;0.00;0.00;;;;;;;;;;5034060;28;20480;-85
2022/09/17 13:47:34;;;;;;;0.00;0.00;;;;;;;;;;5034203;28;20042;-81
2022/09/17 13:50:05;;;;;;;0.00;0.00;;;;;;;;;;5034087;28;20073;-84
2022/09/17 13:52:33;;;;;;;0.00;0.00;;;;;;;;;;5033890;28;20128;-85
2022/09/17 13:54:59;;;;;;;0.00;0.00;;;;;;;;;;5017630;28;20096;-84
2022/09/17 13:57:26;;;;;;;0.00;0.00;;;;;;;;;;5033220;28;20048;-85
2022/09/17 13:59:55;;;;;;;0.00;0.00;;;;;;;;;;5019155;28;20064;-85
2022/09/17 14:02:26;;;;;;;0.00;0.00;;;;;;;;;;5033713;28;20408;-84
2022/09/17 14:04:54;;;;;;;0.00;0.00;;;;;;;;;;5017356;28;20472;-86
2022/09/17 14:07:20;;;;;;;0.00;0.00;;;;;;;;;;5033473;28;20046;-84
2022/09/17 14:09:51;;;;;;;0.00;0.00;;;;;;;;;;5034107;28;20026;-86
2022/09/17 14:12:36;;;;;;;0.00;0.00;;;;;;;;;;5033794;28;20037;-85
2022/09/17 14:15:03;;;;;;;0.05;0.00;;;;;;;;;;5034435;28;20052;-84
2022/09/17 14:17:52;;;;;;;0.00;0.00;;;;;;;;;;5017202;28;20045;-85
2022/09/17 14:20:20;;;;;;;0.00;0.00;;;;;;;;;;5017020;28;20539;-85
2022/09/17 14:23:00;;;;;;;0.00;0.00;;;;;;;;;;5033196;28;20052;-85
2022/09/17 14:25:38;;;;;;;0.00;0.00;;;;;;;;;;5033449;28;20095;-85
2022/09/17 14:28:08;;;;;;;0.00;0.00;;;;;;;;;;5016870;28;20038;-84
2022/09/17 14:30:34;;;;;;;0.00;0.00;;;;;;;;;;5033450;28;20370;-82
2022/09/17 14:33:00;;;;;;;0.00;0.00;;;;;;;;;;5033227;28;20489;-86
2022/09/17 14:35:32;;;;;;;0.00;0.00;;;;;;;;;;5033827;28;20037;-85
2022/09/17 14:38:05;;;;;;;0.00;0.00;;;;;;;;;;5033965;28;20056;-87
2022/09/17 14:40:33;;;;;;;0.00;0.00;;;;;;;;;;5034707;28;20143;-91
2022/09/17 14:42:59;;;;;;;0.00;0.00;;;;;;;;;;5034081;28;20536;-88
2022/09/17 14:45:32;;;;;;;0.00;0.00;;;;;;;;;;5033519;28;20485;-89
2022/09/17 14:48:28;;;;;;;0.00;0.00;;;;;;;;;;5034944;28;20048;-87
2022/09/17 14:51:13;;;;;;;0.00;0.00;;;;;;;;;;5018009;28;20326;-90
2022/09/17 14:53:39;;;;;;;0.00;0.00;;;;;;;;;;5034585;28;20048;-87
2022/09/17 14:56:05;;;;;;;0.00;0.00;;;;;;;;;;5017670;28;20041;-92
2022/09/17 14:58:36;;;;;;;0.00;0.00;;;;;;;;;;5035647;28;20052;-91
2022/09/17 15:01:02;;;;;;;0.00;0.00;;;;;;;;;;5033684;28;20048;-85